createdAt,value
2023-02-11T00:00:42.828Z,6.88
2023-02-11T00:03:12.121Z,6.75
2023-02-11T00:05:41.337Z,6.80
2023-02-11T00:08:10.424Z,6.78
2023-02-11T00:10:39.373Z,6.84
2023-02-11T00:13:06.958Z,6.82
2023-02-11T00:15:36.647Z,6.79
2023-02-11T00:18:06.026Z,6.90
2023-02-11T00:20:35.394Z,6.93
2023-02-11T00:23:02.792Z,6.98
2023-02-11T00:25:30.533Z,6.99
2023-02-11T00:28:01.095Z,6.95
2023-02-11T00:30:34.731Z,6.99
2023-02-11T00:33:02.591Z,6.94
2023-02-11T00:35:30.448Z,6.83
2023-02-11T00:37:58.005Z,6.94
2023-02-11T00:40:29.514Z,7.02
2023-02-11T00:42:56.907Z,7.03
2023-02-11T00:45:30.492Z,7.01
2023-02-11T00:47:58.020Z,7.03
2023-02-11T00:50:27.531Z,6.98
2023-02-11T00:52:55.071Z,7.01
2023-02-11T00:55:22.733Z,6.94
2023-02-11T00:57:50.264Z,6.88
2023-02-11T01:00:22.181Z,6.73
2023-02-11T01:02:52.491Z,6.77
2023-02-11T01:05:20.058Z,6.72
2023-02-11T01:07:47.615Z,6.89
2023-02-11T01:10:15.321Z,6.49
2023-02-11T01:12:43.589Z,6.92
2023-02-11T01:15:14.634Z,6.96
2023-02-11T01:17:45.178Z,6.84
2023-02-11T01:20:18.058Z,6.99
2023-02-11T01:22:45.578Z,6.98
2023-02-11T01:25:13.542Z,7.02
2023-02-11T01:27:48.447Z,6.76
2023-02-11T01:30:15.997Z,6.79
2023-02-11T01:32:45.307Z,6.61
2023-02-11T01:35:14.228Z,6.49
2023-02-11T01:37:41.850Z,6.47
2023-02-11T01:40:14.485Z,6.41
2023-02-11T01:42:42.882Z,6.30
2023-02-11T01:45:54.606Z,6.32
2023-02-11T01:48:25.886Z,6.29
2023-02-11T01:51:01.545Z,6.30
2023-02-11T01:53:48.258Z,6.32
2023-02-11T01:56:37.898Z,6.29
2023-02-11T01:59:10.618Z,6.32
2023-02-11T02:01:40.566Z,6.33
2023-02-11T02:04:10.385Z,6.32
2023-02-11T02:06:50.001Z,6.25
2023-02-11T02:09:23.071Z,6.16
2023-02-11T02:11:50.874Z,6.29
2023-02-11T02:14:18.935Z,6.25
2023-02-11T02:16:47.022Z,6.24
2023-02-11T02:19:40.301Z,6.25
2023-02-11T02:22:35.011Z,6.24
2023-02-11T02:25:28.954Z,6.27
2023-02-11T02:28:05.231Z,6.24
2023-02-11T02:31:03.141Z,6.27
2023-02-11T02:33:51.507Z,6.26
2023-02-11T02:36:25.363Z,6.26
2023-02-11T02:38:57.617Z,6.22
2023-02-11T02:41:29.507Z,6.25
2023-02-11T02:44:00.418Z,6.16
2023-02-11T02:46:30.707Z,6.21
2023-02-11T02:49:00.694Z,6.19
2023-02-11T02:51:45.698Z,6.31
2023-02-11T02:54:46.175Z,6.35
2023-02-11T02:57:27.475Z,6.33
2023-02-11T03:00:10.980Z,6.37
2023-02-11T03:02:49.898Z,6.35
2023-02-11T03:05:24.314Z,6.33
2023-02-11T03:07:59.293Z,6.33
2023-02-11T03:10:31.018Z,6.29
2023-02-11T03:13:00.174Z,6.29
2023-02-11T03:15:32.321Z,6.29
2023-02-11T03:18:04.633Z,6.27
2023-02-11T03:20:36.809Z,6.22
2023-02-11T03:23:09.562Z,-139.23
2023-02-11T03:25:42.482Z,-139.23
2023-02-11T03:28:13.093Z,-139.23
2023-02-11T03:30:48.308Z,-139.23
2023-02-11T03:33:24.444Z,-139.23
2023-02-11T03:35:57.883Z,-139.23
2023-02-11T03:38:31.143Z,-139.23
2023-02-11T03:41:00.471Z,-139.23
2023-02-11T03:43:33.957Z,-139.23
2023-02-11T03:46:03.694Z,-139.23
2023-02-11T03:48:36.406Z,-139.23
2023-02-11T03:51:10.303Z,-139.23
2023-02-11T03:53:41.814Z,-139.23
2023-02-11T03:56:13.737Z,-139.23
2023-02-11T03:58:42.029Z,-139.23
2023-02-11T04:01:10.001Z,-139.23
2023-02-11T04:03:37.844Z,-139.23
2023-02-11T04:06:07.647Z,-139.23
2023-02-11T04:08:35.376Z,-139.23
2023-02-11T04:11:03.290Z,-139.23
2023-02-11T04:13:31.106Z,-139.23
2023-02-11T04:15:59.580Z,-139.23
2023-02-11T04:18:27.305Z,-139.23
2023-02-11T04:20:55.272Z,-139.23
2023-02-11T04:23:24.192Z,-139.23
2023-02-11T04:25:52.432Z,-139.23
2023-02-11T04:28:20.530Z,-139.23
2023-02-11T04:30:50.495Z,-139.23
2023-02-11T04:33:18.439Z,-139.23
2023-02-11T04:35:46.553Z,-139.23
2023-02-11T04:38:15.150Z,-139.23
2023-02-11T04:40:44.801Z,-139.23
2023-02-11T04:43:14.795Z,-139.23
2023-02-11T04:45:44.788Z,-139.23
2023-02-11T04:48:12.700Z,-139.23
2023-02-11T04:50:40.353Z,-139.23
2023-02-11T04:53:07.991Z,-139.23
2023-02-11T04:55:35.789Z,-139.23
2023-02-11T04:58:05.042Z,-139.23
2023-02-11T05:00:34.689Z,-139.23
2023-02-11T05:03:02.489Z,-139.23
2023-02-11T05:05:30.717Z,-139.23
2023-02-11T05:07:58.437Z,-139.23
2023-02-11T05:10:26.064Z,-139.23
2023-02-11T05:12:55.903Z,-139.23
2023-02-11T05:15:25.761Z,-139.23
2023-02-11T05:17:53.869Z,-139.23
2023-02-11T05:20:24.178Z,-139.23
2023-02-11T05:22:52.589Z,-139.23
2023-02-11T05:25:21.321Z,-139.23
2023-02-11T05:27:49.208Z,-139.23
2023-02-11T05:30:16.803Z,-139.23
2023-02-11T05:32:48.093Z,-139.23
2023-02-11T05:35:15.578Z,-139.23
2023-02-11T05:37:43.178Z,-139.23
2023-02-11T05:40:13.439Z,-139.23
2023-02-11T05:42:41.118Z,-139.23
2023-02-11T05:45:09.560Z,-139.23
2023-02-11T05:47:37.483Z,-139.23
2023-02-11T05:50:07.652Z,-139.23
2023-02-11T05:52:37.543Z,-139.23
2023-02-11T05:55:11.618Z,-139.23
2023-02-11T05:57:39.189Z,-139.23
2023-02-11T06:00:07.898Z,-139.23
2023-02-11T06:02:35.625Z,-139.23
2023-02-11T06:05:03.975Z,-139.23
2023-02-11T06:07:33.254Z,-139.23
2023-02-11T06:10:01.602Z,-139.23
2023-02-11T06:12:30.894Z,-139.23
2023-02-11T06:14:58.863Z,-139.23
2023-02-11T06:17:26.518Z,-139.23
2023-02-11T06:19:54.259Z,-139.23
2023-02-11T06:22:24.539Z,-139.23
2023-02-11T06:25:00.987Z,-139.23
2023-02-11T06:27:29.964Z,-139.23
2023-02-11T06:29:58.008Z,-139.23
2023-02-11T06:32:42.916Z,-139.23
2023-02-11T06:35:12.315Z,-139.23
2023-02-11T06:37:42.348Z,-139.23
2023-02-11T06:40:12.436Z,-139.23
2023-02-11T06:42:40.412Z,-139.23
2023-02-11T06:45:10.874Z,-139.23
2023-02-11T06:47:39.624Z,-139.23
2023-02-11T06:50:10.396Z,-139.23
2023-02-11T06:52:37.982Z,-139.23
2023-02-11T06:55:06.629Z,-139.23
2023-02-11T06:57:35.717Z,-139.23
2023-02-11T07:00:05.922Z,-139.23
2023-02-11T07:02:33.848Z,-139.23
2023-02-11T07:05:03.074Z,-139.23
2023-02-11T07:07:34.202Z,-139.23
2023-02-11T07:10:03.105Z,-139.23
2023-02-11T07:12:30.966Z,-139.23
2023-02-11T07:15:00.050Z,-139.23
2023-02-11T07:17:27.972Z,-139.23
2023-02-11T07:19:58.334Z,-139.23
2023-02-11T07:22:27.852Z,-139.23
2023-02-11T07:24:55.438Z,-139.23
2023-02-11T07:27:25.596Z,-139.23
2023-02-11T07:29:54.456Z,-139.23
2023-02-11T07:32:23.696Z,-139.23
2023-02-11T07:34:51.411Z,-139.23
2023-02-11T07:37:19.662Z,-139.23
2023-02-11T07:39:47.520Z,-139.23
2023-02-11T07:42:15.126Z,-139.23
2023-02-11T07:44:44.416Z,-139.23
2023-02-11T07:47:13.248Z,-139.23
2023-02-11T07:49:48.281Z,-139.23
2023-02-11T07:52:17.321Z,-139.23
2023-02-11T07:54:48.585Z,-139.23
2023-02-11T07:57:17.802Z,-139.23
2023-02-11T07:59:45.415Z,-139.23
2023-02-11T08:02:13.617Z,-139.23
2023-02-11T08:04:43.244Z,-139.23
2023-02-11T08:07:13.615Z,-139.23
2023-02-11T08:09:41.417Z,-139.23
2023-02-11T08:12:11.840Z,-139.23
2023-02-11T08:14:40.133Z,-139.23
2023-02-11T08:17:07.872Z,-139.23
2023-02-11T08:19:35.512Z,-139.23
2023-02-11T08:22:05.186Z,-139.23
2023-02-11T08:24:33.241Z,-139.23
2023-02-11T08:27:03.281Z,-139.23
2023-02-11T08:29:31.180Z,-139.23
2023-02-11T08:31:58.951Z,-139.23
2023-02-11T08:34:26.878Z,-139.23
2023-02-11T08:36:55.632Z,-139.23
2023-02-11T08:39:25.154Z,-139.23
2023-02-11T08:41:54.456Z,-139.23
2023-02-11T08:44:25.258Z,-139.23
2023-02-11T08:46:53.058Z,-139.23
2023-02-11T08:49:21.119Z,-139.23
2023-02-11T08:51:49.731Z,-139.23
2023-02-11T08:54:17.568Z,-139.23
2023-02-11T08:56:47.134Z,-139.23
2023-02-11T08:59:17.708Z,-139.23
2023-02-11T09:01:47.491Z,-139.23
2023-02-11T09:04:15.446Z,-139.23
2023-02-11T09:06:43.848Z,-139.23
2023-02-11T09:09:14.056Z,-139.23
2023-02-11T09:11:43.220Z,-139.23
2023-02-11T09:14:18.005Z,-139.23
2023-02-11T09:16:47.499Z,-139.23
2023-02-11T09:19:15.600Z,-139.23
2023-02-11T09:21:43.259Z,-139.23
2023-02-11T09:24:11.135Z,-139.23
2023-02-11T09:26:39.564Z,-139.23
2023-02-11T09:29:07.692Z,-139.23
2023-02-11T09:31:39.453Z,-139.23
2023-02-11T09:34:07.419Z,-139.23
2023-02-11T09:36:40.241Z,-139.23
2023-02-11T09:39:10.425Z,-139.23
2023-02-11T09:42:11.617Z,-139.23
2023-02-11T09:44:40.433Z,-139.23
2023-02-11T09:47:26.789Z,-139.23
2023-02-11T09:50:01.256Z,-139.23
2023-02-11T09:52:37.125Z,-139.23
2023-02-11T09:55:12.681Z,-139.23
2023-02-11T09:57:40.533Z,-139.23
2023-02-11T10:00:20.592Z,-139.23
2023-02-11T10:03:22.798Z,-139.23
2023-02-11T10:06:08.542Z,-139.23
2023-02-11T10:08:48.076Z,-139.23
2023-02-11T10:11:31.921Z,-139.23
2023-02-11T10:14:12.291Z,-139.23
2023-02-11T10:16:53.992Z,-139.23
2023-02-11T10:19:34.987Z,-139.23
2023-02-11T10:22:10.870Z,-139.23
2023-02-11T10:24:42.124Z,-139.23
2023-02-11T10:27:18.630Z,-139.23
2023-02-11T10:29:52.388Z,-139.23
2023-02-11T10:32:30.536Z,-139.23
2023-02-11T10:35:04.932Z,-139.23
2023-02-11T10:37:32.855Z,-139.23
2023-02-11T10:40:00.603Z,-139.23
2023-02-11T10:42:29.319Z,-139.23
2023-02-11T10:45:03.981Z,-139.23
2023-02-11T10:47:38.179Z,-139.23
2023-02-11T10:50:19.861Z,-139.23
2023-02-11T10:52:47.550Z,-139.23
2023-02-11T10:55:20.956Z,-139.23
2023-02-11T10:57:56.429Z,-139.23
2023-02-11T11:00:36.719Z,-139.23
2023-02-11T11:03:11.434Z,-139.23
2023-02-11T11:05:50.171Z,-139.23
2023-02-11T11:08:19.599Z,-139.23
2023-02-11T11:10:52.463Z,-139.23
2023-02-11T11:13:30.615Z,-139.23
2023-02-11T11:16:19.491Z,-139.23
2023-02-11T11:18:49.266Z,-139.23
2023-02-11T11:21:21.691Z,-139.23
2023-02-11T11:23:53.581Z,-139.23
2023-02-11T11:26:22.297Z,-139.23
2023-02-11T11:29:00.233Z,-139.23
2023-02-11T11:31:32.080Z,-139.23
2023-02-11T11:34:04.531Z,-139.23
2023-02-11T11:36:37.119Z,-139.23
2023-02-11T11:39:20.100Z,-139.23
2023-02-11T11:41:55.388Z,-139.23
2023-02-11T11:44:28.296Z,-139.23
2023-02-11T11:47:21.270Z,-139.23
2023-02-11T11:49:55.347Z,-139.23
2023-02-11T11:52:37.147Z,-139.23
2023-02-11T11:55:12.868Z,-139.23
2023-02-11T11:57:41.427Z,-139.23
2023-02-11T12:00:16.728Z,-139.23
2023-02-11T12:03:12.239Z,-139.23
2023-02-11T12:05:48.104Z,-139.23
2023-02-11T12:08:26.704Z,-139.23
2023-02-11T12:11:04.468Z,-139.23
2023-02-11T12:13:44.627Z,-139.23
2023-02-11T12:16:23.035Z,-139.23
2023-02-11T12:19:15.472Z,-139.23
2023-02-11T12:21:55.116Z,-139.23
2023-02-11T12:24:39.198Z,-139.23
2023-02-11T12:27:16.782Z,-139.23
2023-02-11T12:29:57.559Z,-139.23
2023-02-11T12:32:33.626Z,-139.23
2023-02-11T12:35:16.969Z,-139.23
2023-02-11T12:38:01.922Z,-139.23
2023-02-11T12:40:39.427Z,-139.23
2023-02-11T12:43:20.548Z,-139.23
2023-02-11T12:46:18.303Z,-139.23
2023-02-11T12:49:03.804Z,-139.23
2023-02-11T12:51:44.195Z,-139.23
2023-02-11T12:54:24.785Z,-139.23
2023-02-11T12:57:05.168Z,-139.23
2023-02-11T12:59:47.436Z,-139.23
2023-02-11T13:02:43.390Z,-139.23
2023-02-11T13:05:24.832Z,-139.23
2023-02-11T13:07:58.193Z,-139.23
2023-02-11T13:11:23.072Z,-139.23
2023-02-11T13:14:19.661Z,-139.23
2023-02-11T13:16:52.491Z,-139.23
2023-02-11T13:19:49.011Z,-139.23
2023-02-11T13:22:24.277Z,-139.23
2023-02-11T13:25:31.865Z,-139.23
2023-02-11T13:28:08.912Z,-139.23
2023-02-11T13:31:02.041Z,-139.23
2023-02-11T13:34:47.561Z,-139.23
2023-02-11T13:38:23.134Z,-139.23
2023-02-11T13:42:03.893Z,-139.23
2023-02-11T13:45:29.770Z,-139.23
2023-02-11T13:48:02.936Z,-139.23
2023-02-11T13:51:36.427Z,-139.23
2023-02-11T13:55:08.993Z,-139.23
2023-02-11T13:58:39.873Z,-139.23
2023-02-11T14:02:38.798Z,-139.23
2023-02-11T14:06:52.863Z,-139.23
2023-02-11T14:10:50.576Z,-139.23
2023-02-11T14:14:27.357Z,-139.23
2023-02-11T14:18:35.376Z,-139.23
2023-02-11T14:22:16.611Z,-139.23
2023-02-11T14:25:54.064Z,-139.23
2023-02-11T14:29:29.174Z,-139.23
2023-02-11T14:33:07.341Z,-139.23
2023-02-11T14:36:46.438Z,-139.23
2023-02-11T14:40:24.684Z,-139.23
2023-02-11T14:43:55.295Z,-139.23
2023-02-11T14:47:24.456Z,-139.23
2023-02-11T14:50:53.146Z,-139.23
2023-02-11T14:54:25.277Z,-139.23
2023-02-11T14:58:06.479Z,-139.23
2023-02-11T15:01:36.884Z,-139.23
2023-02-11T15:05:17.308Z,-139.23
2023-02-11T15:08:48.291Z,-139.23
2023-02-11T15:12:20.170Z,-139.23
2023-02-11T15:15:48.533Z,-139.23
2023-02-11T15:19:21.354Z,-139.23
2023-02-11T15:22:53.098Z,-139.23
2023-02-11T15:26:22.456Z,-139.23
2023-02-11T15:29:52.611Z,-139.23
2023-02-11T15:33:22.952Z,-139.23
2023-02-11T15:36:49.220Z,-139.23
2023-02-11T15:40:18.849Z,-139.23
2023-02-11T15:43:54.095Z,-139.23
2023-02-11T15:47:22.659Z,-139.23
2023-02-11T15:50:52.067Z,-139.23
2023-02-11T15:54:27.330Z,-139.23
2023-02-11T15:57:58.039Z,-139.23
2023-02-11T16:01:33.149Z,-139.23
2023-02-11T16:05:01.537Z,-139.23
2023-02-11T16:08:43.147Z,-139.23
2023-02-11T16:12:24.939Z,-139.23
2023-02-11T16:15:55.948Z,-139.23
2023-02-11T16:19:32.491Z,-139.23
2023-02-11T16:23:00.662Z,-139.23
2023-02-11T16:26:30.114Z,-139.23
2023-02-11T16:30:07.392Z,-139.23
2023-02-11T16:33:33.622Z,-139.23
2023-02-11T16:37:00.364Z,-139.23
2023-02-11T16:40:26.587Z,-139.23
2023-02-11T16:43:52.716Z,-139.23
2023-02-11T16:47:21.685Z,-139.23
2023-02-11T16:50:51.514Z,-139.23
2023-02-11T16:54:25.999Z,-139.23
2023-02-11T16:57:52.304Z,-139.23
2023-02-11T17:01:19.233Z,-139.23
2023-02-11T17:04:47.424Z,-139.23
2023-02-11T17:08:13.577Z,-139.23
2023-02-11T17:11:41.581Z,-139.23
2023-02-11T17:15:09.715Z,-139.23
2023-02-11T17:18:37.270Z,-139.23
2023-02-11T17:22:07.632Z,-139.23
2023-02-11T17:25:33.774Z,-139.23
2023-02-11T17:28:59.930Z,-139.23
2023-02-11T17:32:29.611Z,-139.23
2023-02-11T17:35:55.813Z,-139.23
2023-02-11T17:39:26.091Z,-139.23
2023-02-11T17:42:52.947Z,-139.23
2023-02-11T17:46:20.152Z,-139.23
2023-02-11T17:49:46.684Z,-139.23
2023-02-11T17:53:13.920Z,-139.23
2023-02-11T17:56:41.778Z,-139.23
2023-02-11T18:00:08.800Z,-139.23
2023-02-11T18:03:34.973Z,-139.23
2023-02-11T18:07:01.737Z,-139.23
2023-02-11T18:10:27.976Z,-139.23
2023-02-11T18:13:55.874Z,-139.23
2023-02-11T18:17:22.928Z,-139.23
2023-02-11T18:20:58.353Z,-139.23
2023-02-11T18:24:24.780Z,-139.23
2023-02-11T18:27:51.327Z,-139.23
2023-02-11T18:31:19.691Z,-139.23
2023-02-11T18:34:48.798Z,-139.23
2023-02-11T18:38:15.024Z,-139.23
2023-02-11T18:41:43.351Z,-139.23
2023-02-11T18:45:14.996Z,-139.23
2023-02-11T18:48:45.030Z,-139.23
2023-02-11T18:52:12.203Z,-139.23
2023-02-11T18:55:39.092Z,-139.23
2023-02-11T18:59:05.486Z,-139.23
2023-02-11T19:02:32.103Z,-139.23
2023-02-11T19:06:00.119Z,-139.23
2023-02-11T19:09:26.961Z,-139.23
2023-02-11T19:12:54.100Z,-139.23
2023-02-11T19:16:20.259Z,-139.23
2023-02-11T19:19:46.421Z,-139.23
2023-02-11T19:23:18.154Z,-139.23
2023-02-11T19:26:47.374Z,-139.23
2023-02-11T19:30:13.831Z,-139.23
2023-02-11T19:33:41.375Z,-139.23
2023-02-11T19:37:07.846Z,-139.23
2023-02-11T19:40:37.321Z,-139.23
2023-02-11T19:44:10.063Z,-139.23
2023-02-11T19:47:37.555Z,-139.23
2023-02-11T19:51:09.089Z,-139.23
2023-02-11T19:54:38.716Z,-139.23
2023-02-11T19:58:05.017Z,-139.23
2023-02-11T20:01:31.369Z,-139.23
2023-02-11T20:04:57.423Z,-139.23
2023-02-11T20:08:23.911Z,-139.23
2023-02-11T20:11:51.498Z,-139.23
2023-02-11T20:15:17.740Z,-139.23
2023-02-11T20:18:44.571Z,-139.23
2023-02-11T20:22:11.862Z,-139.23
2023-02-11T20:25:40.229Z,-139.23
2023-02-11T20:29:08.025Z,-139.23
2023-02-11T20:32:38.099Z,-139.23
2023-02-11T20:36:06.604Z,-139.23
2023-02-11T20:39:33.412Z,-139.23
2023-02-11T20:42:59.404Z,-139.23
2023-02-11T20:46:28.217Z,-139.23
2023-02-11T20:49:55.462Z,-139.23
2023-02-11T20:53:21.773Z,-139.23
2023-02-11T20:56:48.641Z,-139.23
2023-02-11T21:00:16.061Z,-139.23
2023-02-11T21:03:44.933Z,-139.23
2023-02-11T21:07:11.145Z,-139.23
2023-02-11T21:10:37.386Z,-139.23
2023-02-11T21:14:04.811Z,-139.23
2023-02-11T21:17:32.311Z,-139.23
2023-02-11T21:21:01.012Z,-139.23
2023-02-11T21:24:27.569Z,-139.23
2023-02-11T21:27:55.602Z,-139.23
2023-02-11T21:31:25.118Z,-139.23
2023-02-11T21:34:53.905Z,-139.23
2023-02-11T21:38:22.232Z,-139.23
2023-02-11T21:41:48.502Z,-139.23
2023-02-11T21:45:14.995Z,-139.23
2023-02-11T21:48:41.280Z,-139.23
2023-02-11T21:52:08.107Z,-139.23
2023-02-11T21:55:36.219Z,-139.23
2023-02-11T21:59:02.457Z,-139.23
2023-02-11T22:02:18.246Z,-139.23
2023-02-11T22:04:59.553Z,-139.23
2023-02-11T22:07:28.714Z,-139.23
2023-02-11T22:10:03.741Z,-139.23
2023-02-11T22:12:32.663Z,-139.23
2023-02-11T22:15:02.323Z,-139.23
2023-02-11T22:17:30.226Z,-139.23
2023-02-11T22:19:59.107Z,-139.23
2023-02-11T22:22:29.107Z,-139.23
2023-02-11T22:25:01.901Z,-139.23
2023-02-11T22:27:34.889Z,-139.23
2023-02-11T22:30:03.144Z,-139.23
2023-02-11T22:32:34.020Z,-139.23
2023-02-11T22:35:02.023Z,-139.23
2023-02-11T22:37:29.657Z,-139.23
2023-02-11T22:39:58.958Z,-139.23
2023-02-11T22:42:26.725Z,-139.23
2023-02-11T22:44:56.221Z,-139.23
2023-02-11T22:47:40.274Z,-139.23
2023-02-11T22:50:09.987Z,-139.23
2023-02-11T22:52:40.470Z,-139.23
2023-02-11T22:55:10.399Z,-139.23
2023-02-11T22:57:39.286Z,-139.23
2023-02-11T23:00:09.803Z,-139.23
2023-02-11T23:02:37.416Z,-139.23
2023-02-11T23:05:05.380Z,-139.23
2023-02-11T23:07:32.952Z,-139.23
2023-02-11T23:10:01.120Z,-139.23
2023-02-11T23:12:30.212Z,-139.23
2023-02-11T23:14:58.268Z,-139.23
2023-02-11T23:17:26.217Z,-139.23
2023-02-11T23:19:53.906Z,-139.23
2023-02-11T23:22:23.505Z,-139.23
2023-02-11T23:24:51.067Z,-139.23
2023-02-11T23:27:18.951Z,-139.23
2023-02-11T23:29:48.017Z,-139.23
2023-02-11T23:32:15.962Z,-139.23
2023-02-11T23:34:43.526Z,-139.23
2023-02-11T23:37:11.543Z,-139.23
2023-02-11T23:39:39.835Z,-139.23
2023-02-11T23:42:07.511Z,-139.23
2023-02-11T23:44:35.013Z,-139.23
2023-02-11T23:47:04.210Z,-139.23
2023-02-11T23:49:32.028Z,-139.23
2023-02-11T23:51:59.500Z,-139.23
2023-02-11T23:54:27.125Z,-139.23
2023-02-11T23:56:54.813Z,-139.23
2023-02-11T23:59:22.487Z,-139.23
